METAR Data
IDs: Format: Raw Decoded Include TAF

Data at: 1050 UTC 26 Sep 2018

KCMA 261015Z AUTO 31004KT 7SM OVC009 17/14 A2994 RMK AO2 T01720139
KCMA 260955Z AUTO 00000KT 7SM BKN010 17/14 A2994 RMK AO2 SLP146 T01720139
KCMA 260855Z AUTO 00000KT 9SM OVC012 18/14 A2995 RMK AO2 SLP149 T01830139 53000
KCMA 260755Z AUTO 00000KT 9SM OVC011 18/14 A2995 RMK AO2 SLP149 T01830139 402330178
KCMA 260655Z AUTO 00000KT 9SM OVC011 18/14 A2995 RMK AO2 SLP150 T01830139
KCMA 260555Z AUTO 22003KT 9SM OVC011 18/14 A2995 RMK AO2 SLP149 T01830139 10206 20178 53012
KCMA 260455Z AUTO 23003KT 9SM OVC010 18/14 A2993 RMK AO2 SLP143 T01830139
KCMA 260355Z 26005KT 9SM OVC010 18/14 A2993 RMK AO2 SLP142 T01830139
KCMA 260255Z 26009KT 10SM OVC010 18/14 A2991 RMK AO2 SLP137 T01830139 53003
KCMA 260155Z 26008KT 10SM OVC012 18/14 A2990 RMK AO2 SLP134 T01830139
KCMA 260124Z 27006KT 10SM BKN012 18/14 A2990 RMK AO2 T01830139
KCMA 260055Z 26007KT 10SM FEW014 19/14 A2990 RMK AO2 SLP133 T01890139
KCMA 252355Z 26011KT 10SM FEW016 21/14 A2990 RMK AO2 SLP134 T02060139 10233 20200 56009
KCMA 252255Z 24010KT 10SM CLR 22/14 A2991 RMK AO2 SLP136 T02220139
KCMA 252155Z 23008KT 10SM CLR 23/14 A2991 RMK AO2 SLP135 T02330139
KCMA 252055Z 25007KT 10SM CLR 22/14 A2993 RMK AO2 SLP143 T02220139 58007
KCMA 251955Z 22006KT 10SM FEW019 22/14 A2995 RMK AO2 SLP150 T02170139
KCMA 251950Z 22009KT 10SM FEW019 22/14 A2995 RMK AO2
KCMA 251855Z 21007KT 8SM OVC018 21/14 A2995 RMK AO2 SLP150 T02060144
KCMA 251755Z 18004KT 7SM OVC016 20/14 A2996 RMK AO2 SLP153 T02000139 10200 20183 53009
KCMA 251655Z 11004KT 7SM OVC014 19/14 A2994 RMK AO2 SLP148 T01940139
KCMA 251555Z 08004KT 6SM HZ OVC012 19/14 A2994 RMK AO2 SLP146 T01890139
KCMA 251455Z 06003KT 7SM OVC013 18/14 A2993 RMK AO2 SLP144 T01830139 51019
KCMA 251355Z 00000KT 8SM OVC013 18/14 A2991 RMK AO2 SLP138 T01830139
KCMA 251255Z AUTO 05004KT 8SM OVC013 18/14 A2990 RMK AO2 SLP133 T01830139
KCMA 251155Z AUTO 05007KT 9SM OVC013 18/14 A2988 RMK AO2 SLP125 T01830139 10194 20183 58002
KCMA 251055Z AUTO 20003KT 9SM OVC014 19/14 A2988 RMK AO2 SLP127 T01890139
KCMA 250955Z AUTO 28004KT 10SM OVC014 19/14 A2989 RMK AO2 SLP129 T01890139
KCMA 250855Z AUTO 30003KT 10SM OVC014 19/14 A2988 RMK AO2 SLP127 T01890139 58002
KCMA 250836Z AUTO 00000KT 10SM OVC014 19/14 A2988 RMK AO2 T01940139
KCMA 250755Z AUTO 26003KT 10SM OVC015 19/14 A2989 RMK AO2 SLP130 T01890139 402330178
KCMA 250705Z AUTO 26003KT 10SM OVC015 19/14 A2989 RMK AO2 T01940139
KCMA 250655Z AUTO 26003KT 10SM OVC014 19/14 A2989 RMK AO2 SLP130 T01940139
KCMA 250555Z AUTO 24003KT 10SM OVC014 19/14 A2989 RMK AO2 SLP130 T01940144 10217 20194 51010
KCMA 250538Z AUTO 26003KT 10SM OVC015 19/14 A2989 RMK AO2 T01940144
KCMA 250455Z AUTO 24006KT 10SM OVC014 19/14 A2989 RMK AO2 SLP129 T01940144
KCMA 250355Z AUTO 23004KT 10SM OVC013 20/15 A2988 RMK AO2 SLP127 T02000150
KCMA 250329Z 21003KT 10SM OVC013 19/15 A2987 RMK AO2 T01940150
KCMA 250255Z 00000KT 10SM BKN017 19/14 A2986 RMK AO2 SLP119 T01940139 51005
KCMA 250251Z 00000KT 10SM BKN017 19/14 A2986 RMK AO2
KCMA 250236Z 00000KT 10SM SCT017 19/14 A2986 RMK AO2 T01940139
KCMA 250229Z 29004KT 10SM BKN017 19/14 A2986 RMK AO2 T01940139
KCMA 250155Z 24005KT 10SM FEW017 20/14 A2985 RMK AO2 SLP118 T02000139
KCMA 250055Z 20008KT 10SM CLR 21/14 A2985 RMK AO2 SLP114 T02110139
KCMA 242355Z 22007KT 10SM CLR 22/14 A2985 RMK AO2 SLP115 T02170139 10233 20217 56008
KCMA 242255Z 22009KT 10SM CLR 22/14 A2985 RMK AO2 SLP116 T02220139